CheckWX is a tool to help pilots better visualize weather data.  It is not intended as a substitute for an official pre-flight weather briefing.

06:08:27 UTC

KBKN METAR
Blackwell-Tonkawa Municipal Airport
Blackwell, Oklahoma, USA
Current

13 mins ago

KBKN 260555Z AUTO 11006KT 10SM CLR 24/24 A3000 RMK AO2
Observed
Jun-26 @ 05:55 UTC
Wind
  • 110° at 6 KTS
Visibility
10 SM
Flight Rules
VFR
Cloud Levels
  • Clear skies
Temperature
24°C / 75°F
Dewpoint
24°C / 75°F
Humidity
100%
Altimeter
30" Hg
Pressure
1015.92 hPa
Previous

33 mins ago

KBKN 260535Z AUTO 14007KT 10SM CLR 24/24 A3000 RMK AO2 LTG DSNT N
Observed
Jun-26 @ 05:35 UTC
Wind
  • 140° at 7 KTS
Visibility
10 SM
Flight Rules
VFR
Cloud Levels
  • Clear skies
Temperature
24°C / 75°F
Dewpoint
24°C / 75°F
Humidity
100%
Altimeter
30" Hg
Pressure
1015.92 hPa
Previous

53 mins ago

KBKN 260515Z AUTO 15008KT 10SM CLR 24/24 A2999 RMK AO2
Observed
Jun-26 @ 05:15 UTC
Wind
  • 150° at 8 KTS
Visibility
10 SM
Flight Rules
VFR
Cloud Levels
  • Clear skies
Temperature
24°C / 75°F
Dewpoint
24°C / 75°F
Humidity
100%
Altimeter
29.99" Hg
Pressure
1015.62 hPa